Time;durP1;ratioP1;P1;durP2;ratioP2;P2;SDS_P1;SDS_P2;PMS_P1;PMS_P2;Temp;Humidity;BMP_temperature;BMP_pressure;BME280_temperature;BME280_humidity;BME280_pressure;Samples;Min_cycle;Max_cycle;Signal;HPM_P1;HPM_P2
2022/01/04 05:02:39;;;;;;;27.02;14.07;;;;;;;5.08;100.00;99163.53;4501571;31;143811;-76
2022/01/04 05:05:26;;;;;;;25.60;14.15;;;;;;;5.08;100.00;99163.53;4490130;32;33594;-76
2022/01/04 05:08:12;;;;;;;23.73;13.57;;;;;;;5.43;100.00;99165.06;4489357;31;35581;-75
2022/01/04 05:10:59;;;;;;;25.48;13.98;;;;;;;6.17;100.00;99162.03;4488660;31;34621;-77
2022/01/04 05:13:45;;;;;;;24.00;13.07;;;;;;;6.60;99.74;99165.44;4483693;31;34345;-76
2022/01/04 05:16:31;;;;;;;24.33;13.38;;;;;;;5.88;98.58;99162.91;4479743;32;34211;-76
2022/01/04 05:19:21;;;;;;;20.85;11.93;;;;;;;6.48;97.16;99165.91;4490296;31;34307;-76
2022/01/04 05:22:08;;;;;;;22.20;12.95;;;;;;;6.73;95.42;99166.62;4490684;31;35567;-76
2022/01/04 05:24:54;;;;;;;22.85;12.70;;;;;;;7.00;92.38;99163.16;4479161;31;35366;-77
2022/01/04 05:27:41;;;;;;;20.70;12.05;;;;;;;7.04;91.70;99160.69;4491247;31;34074;-76
2022/01/04 05:30:27;;;;;;;20.05;11.15;;;;;;;7.05;90.42;99160.38;4488194;31;35250;-76
2022/01/04 05:33:13;;;;;;;20.17;11.27;;;;;;;7.25;88.33;99151.00;4489204;31;35218;-76
2022/01/04 05:36:00;;;;;;;20.50;11.70;;;;;;;7.25;86.94;99142.03;4490412;31;34512;-76
2022/01/04 05:38:49;;;;;;;20.67;12.15;;;;;;;7.03;87.24;99135.38;4480809;31;33643;-76
2022/01/04 05:41:35;;;;;;;19.90;11.38;;;;;;;6.61;88.65;99133.63;4480302;32;35621;-76
2022/01/04 05:44:22;;;;;;;21.35;11.93;;;;;;;6.50;87.92;99127.53;4483262;31;34460;-76
2022/01/04 05:47:08;;;;;;;18.23;10.70;;;;;;;7.03;86.16;99113.56;4483901;31;34568;-75
2022/01/04 05:49:55;;;;;;;19.73;10.40;;;;;;;7.01;85.94;99115.78;4490934;31;34009;-76
2022/01/04 05:52:41;;;;;;;20.37;11.25;;;;;;;7.02;85.64;99106.47;4490136;32;35122;-77
2022/01/04 05:55:27;;;;;;;19.35;10.57;;;;;;;6.88;85.66;99102.94;4489074;31;36000;-75
2022/01/04 05:58:14;;;;;;;19.17;11.88;;;;;;;6.69;86.28;99095.63;4479946;32;35030;-76
2022/01/04 06:01:00;;;;;;;20.73;11.57;;;;;;;6.48;88.31;99089.72;4487894;31;34255;-76
2022/01/04 06:03:51;;;;;;;20.52;12.43;;;;;;;6.39;88.64;99090.69;4489011;31;35519;-76
2022/01/04 06:06:40;;;;;;;18.58;11.07;;;;;;;6.42;88.20;99098.25;4483124;31;36592;-76
2022/01/04 06:09:38;;;;;;;23.67;13.15;;;;;;;6.81;86.97;99095.16;4489361;31;34587;-76
2022/01/04 06:15:17;;;;;;;17.35;10.68;;;;;;;6.46;88.01;99091.09;4477784;32;34072;-77
2022/01/04 06:18:04;;;;;;;18.37;10.60;;;;;;;6.80;86.67;99087.28;4477372;31;34880;-76
2022/01/04 06:20:51;;;;;;;19.90;10.95;;;;;;;6.29;89.37;99084.31;4478824;32;35081;-76
2022/01/04 06:23:39;;;;;;;17.77;10.43;;;;;;;5.88;92.62;99089.50;4479078;32;34116;-75
2022/01/04 06:26:27;;;;;;;17.12;10.13;;;;;;;5.98;94.99;99083.16;4478356;32;34581;-75
2022/01/04 06:29:14;;;;;;;19.23;9.80;;;;;;;5.98;95.76;99085.87;4465934;32;34446;-76
2022/01/04 06:32:01;;;;;;;17.17;10.13;;;;;;;6.01;96.48;99088.00;4479469;32;35115;-76
2022/01/04 06:34:47;;;;;;;17.75;10.18;;;;;;;5.99;95.90;99087.47;4471206;32;33720;-77
2022/01/04 06:37:33;;;;;;;18.67;10.23;;;;;;;5.81;96.50;99080.91;4469371;32;35433;-76
2022/01/04 06:40:20;;;;;;;19.05;10.95;;;;;;;5.75;97.02;99079.34;4470684;32;34938;-76
2022/01/04 06:43:06;;;;;;;15.40;9.10;;;;;;;5.77;99.17;99067.06;4478045;32;34049;-77
2022/01/04 06:45:52;;;;;;;16.98;9.13;;;;;;;5.15;100.00;99071.66;4477287;32;33067;-76
2022/01/04 06:48:39;;;;;;;17.00;9.68;;;;;;;5.54;98.53;99065.22;4479055;32;35310;-76
2022/01/04 06:51:26;;;;;;;17.37;9.90;;;;;;;6.21;94.57;99062.41;4477046;31;35496;-77
2022/01/04 06:54:14;;;;;;;17.25;9.38;;;;;;;6.20;94.25;99050.69;4476639;32;34452;-76
2022/01/04 06:57:01;;;;;;;16.12;9.93;;;;;;;6.29;94.19;99054.38;4479510;32;34363;-77
2022/01/04 06:59:47;;;;;;;15.40;9.38;;;;;;;6.15;94.69;99060.84;4475170;32;34190;-76
2022/01/04 07:02:34;;;;;;;16.67;9.43;;;;;;;6.73;91.38;99050.34;4476342;32;34949;-76
2022/01/04 07:05:20;;;;;;;17.12;9.65;;;;;;;6.01;94.84;99047.22;4475694;31;34495;-75
2022/01/04 07:08:07;;;;;;;17.52;10.02;;;;;;;6.24;94.27;99054.47;4477671;31;34647;-76
2022/01/04 07:10:53;;;;;;;17.80;9.80;;;;;;;6.15;93.39;99048.09;4452782;32;35463;-77
2022/01/04 07:40:23;;;;;;;21.87;12.35;;;;;;;5.32;100.00;99072.03;4487807;31;136714;-75
2022/01/04 07:43:12;;;;;;;23.35;12.10;;;;;;;5.32;100.00;99072.03;4482531;31;33298;-75
2022/01/04 07:45:58;;;;;;;22.40;12.82;;;;;;;5.48;100.00;99067.19;4485951;31;33738;-75
2022/01/04 07:48:45;;;;;;;20.62;11.93;;;;;;;5.52;100.00;99056.53;4483044;32;34997;-75
2022/01/04 07:51:32;;;;;;;19.10;11.45;;;;;;;5.61;100.00;99057.53;4490797;31;35031;-74
2022/01/04 07:54:18;;;;;;;19.45;10.85;;;;;;;5.87;100.00;99056.06;4491387;31;34201;-75
2022/01/04 07:57:04;;;;;;;18.30;10.77;;;;;;;6.28;96.75;99055.47;4492652;31;34625;-75
2022/01/04 07:59:51;;;;;;;16.83;10.05;;;;;;;6.88;94.48;99041.09;4482747;31;34975;-75
2022/01/04 08:02:38;;;;;;;17.60;10.40;;;;;;;7.34;91.67;99036.66;4484477;31;34139;-75
2022/01/04 08:05:25;;;;;;;15.45;9.15;;;;;;;7.20;89.93;99029.31;4491732;31;35159;-75
2022/01/04 08:08:11;;;;;;;17.65;9.73;;;;;;;6.44;93.65;99036.19;4492131;31;35223;-75
2022/01/04 08:10:57;;;;;;;19.00;10.90;;;;;;;6.59;94.47;99027.75;4480532;31;35955;-75
2022/01/04 08:13:44;;;;;;;18.45;10.95;;;;;;;6.30;96.21;99023.34;4491446;31;33742;-75
2022/01/04 08:16:30;;;;;;;18.05;10.65;;;;;;;6.59;96.25;99022.31;4491730;32;35085;-75
2022/01/04 08:19:16;;;;;;;14.95;8.95;;;;;;;7.59;91.68;99005.34;4484311;32;34627;-75
2022/01/04 08:22:03;;;;;;;15.85;8.82;;;;;;;8.29;88.14;98993.06;4491551;31;35151;-75
2022/01/04 08:24:49;;;;;;;15.68;8.65;;;;;;;8.49;86.14;98991.75;4491129;31;34550;-75
2022/01/04 08:27:36;;;;;;;15.60;8.80;;;;;;;8.21;87.12;98996.53;4489646;31;35106;-75
2022/01/04 08:30:22;;;;;;;13.32;7.70;;;;;;;8.28;86.34;98989.53;4495151;31;33612;-75
2022/01/04 08:33:11;;;;;;;12.37;7.40;;;;;;;7.70;87.47;98995.00;4479807;31;35974;-75
2022/01/04 08:35:58;;;;;;;13.73;7.03;;;;;;;7.15;90.13;98980.37;4483048;31;34599;-75
2022/01/04 08:38:50;;;;;;;12.80;6.90;;;;;;;7.72;87.60;98982.69;4480804;31;36938;-75
2022/01/04 08:41:36;;;;;;;11.50;6.62;;;;;;;7.15;91.23;98991.28;4493587;31;34149;-75
2022/01/04 08:44:29;;;;;;;10.85;6.50;;;;;;;6.49;94.06;98992.56;4492191;31;36038;-75
2022/01/04 08:47:15;;;;;;;12.90;6.65;;;;;;;7.02;92.91;98997.53;4486068;31;34503;-75
2022/01/04 08:50:03;;;;;;;13.70;6.90;;;;;;;7.98;87.06;98980.16;4489688;31;33719;-75
2022/01/04 08:52:51;;;;;;;26.42;7.97;;;;;;;8.17;85.07;98979.97;4482652;31;33780;-75
2022/01/04 08:55:38;;;;;;;15.82;7.07;;;;;;;8.23;86.55;98975.22;4483803;31;34883;-75
2022/01/04 08:58:24;;;;;;;10.90;6.03;;;;;;;8.48;82.71;98973.75;4481648;31;35320;-74
2022/01/04 09:01:10;;;;;;;9.95;5.37;;;;;;;7.10;88.98;98982.41;4481802;31;34246;-75
2022/01/04 09:03:57;;;;;;;12.60;6.65;;;;;;;8.00;87.96;98963.50;4456196;31;33307;-75
2022/01/04 09:06:44;;;;;;;11.45;6.05;;;;;;;8.62;84.84;98955.34;4485018;31;35080;-75
2022/01/04 09:09:30;;;;;;;11.95;6.68;;;;;;;8.61;82.17;98955.69;4471129;31;34447;-75
2022/01/04 09:13:20;;;;;;;11.48;6.50;;;;;;;8.46;83.62;98960.44;4483275;31;34699;-75
2022/01/04 09:15:56;;;;;;;14.68;6.72;;;;;;;8.70;83.06;98961.97;4472689;31;34564;-76
2022/01/04 09:18:45;;;;;;;12.18;6.55;;;;;;;8.83;82.04;98955.63;4480507;31;34732;-76
2022/01/04 09:21:41;;;;;;;25.35;8.20;;;;;;;8.13;84.04;98937.25;4471329;31;33084;-75
2022/01/04 09:24:28;;;;;;;13.68;7.22;;;;;;;8.73;81.18;98928.56;4480837;31;36263;-75
2022/01/04 09:27:15;;;;;;;12.05;6.93;;;;;;;7.64;86.95;98932.41;4470876;31;34566;-75
2022/01/04 09:30:04;;;;;;;15.75;6.75;;;;;;;8.32;84.61;98940.56;4485658;31;34803;-76
2022/01/04 09:32:52;;;;;;;12.02;6.75;;;;;;;8.75;82.15;98920.88;4484089;31;35382;-76
2022/01/04 09:35:39;;;;;;;12.43;6.32;;;;;;;8.10;85.25;98922.31;4472806;31;34766;-76
2022/01/04 09:38:25;;;;;;;11.93;6.35;;;;;;;7.98;86.83;98909.22;4472190;31;35532;-76
2022/01/04 09:41:12;;;;;;;12.10;7.25;;;;;;;8.59;84.43;98889.66;4484706;31;35525;-75
2022/01/04 09:44:02;;;;;;;10.63;6.15;;;;;;;8.39;85.89;98893.75;4481366;32;34480;-76
2022/01/04 09:46:49;;;;;;;11.52;6.80;;;;;;;8.94;81.86;98902.28;4481699;31;33986;-76
2022/01/04 09:49:35;;;;;;;10.52;6.47;;;;;;;8.32;84.25;98896.91;4476400;31;34022;-76
2022/01/04 09:52:21;;;;;;;10.70;6.28;;;;;;;9.23;82.02;98876.28;4464889;31;35859;-76
2022/01/04 09:55:09;;;;;;;11.00;6.85;;;;;;;9.42;79.83;98871.31;4474732;31;34481;-77
2022/01/04 09:58:01;;;;;;;10.25;5.43;;;;;;;9.31;79.74;98848.16;4481770;31;34231;-76
2022/01/04 10:00:48;;;;;;;13.65;6.25;;;;;;;9.28;81.43;98854.28;4472484;31;34087;-76
2022/01/04 10:03:38;;;;;;;11.88;5.57;;;;;;;9.55;80.37;98838.66;4482467;31;34605;-76
2022/01/04 10:06:26;;;;;;;9.57;5.75;;;;;;;9.36;81.73;98836.25;4472538;31;35360;-76
2022/01/04 10:09:13;;;;;;;12.60;5.80;;;;;;;8.93;83.62;98834.28;4470781;31;34072;-76
2022/01/04 10:11:59;;;;;;;9.48;5.70;;;;;;;9.22;82.68;98830.94;4472697;31;34335;-76
2022/01/04 10:14:50;;;;;;;9.90;5.30;;;;;;;8.73;85.54;98824.78;4480137;31;34981;-76
2022/01/04 10:17:39;;;;;;;8.85;5.28;;;;;;;9.28;82.63;98818.75;4483490;31;34330;-76
2022/01/04 10:20:25;;;;;;;9.88;6.03;;;;;;;9.96;80.47;98809.91;4471115;31;34956;-76
2022/01/04 10:23:14;;;;;;;11.57;5.53;;;;;;;10.13;79.09;98810.66;4482180;31;37419;-77
2022/01/04 10:26:04;;;;;;;9.75;5.90;;;;;;;10.27;78.89;98802.25;4479446;31;34672;-76
2022/01/04 10:28:50;;;;;;;8.55;5.12;;;;;;;9.22;81.89;98806.34;4460546;32;35290;-77
2022/01/04 10:31:38;;;;;;;10.60;5.10;;;;;;;10.13;81.87;98804.37;4480184;31;33799;-77
2022/01/04 10:34:44;;;;;;;9.35;4.90;;;;;;;10.77;78.31;98793.28;4480042;31;35587;-76
2022/01/04 10:37:39;;;;;;;9.45;5.12;;;;;;;10.22;79.87;98796.16;4481147;31;35991;-77
2022/01/04 10:40:30;;;;;;;9.93;5.47;;;;;;;10.50;79.62;98785.53;4481058;31;34544;-76
2022/01/04 10:43:20;;;;;;;10.18;5.60;;;;;;;10.33;80.70;98789.16;4470113;31;33870;-76
2022/01/04 10:46:07;;;;;;;8.55;4.70;;;;;;;10.26;80.44;98781.47;4470643;31;34374;-76
2022/01/04 10:48:55;;;;;;;8.10;4.72;;;;;;;9.93;81.51;98794.94;4459868;31;35013;-77
2022/01/04 10:51:41;;;;;;;9.68;5.22;;;;;;;10.02;82.25;98800.41;4470603;31;34191;-77
2022/01/04 10:54:30;;;;;;;8.98;4.57;;;;;;;9.72;83.93;98803.06;4472416;31;34144;-77
2022/01/04 10:57:16;;;;;;;9.63;5.28;;;;;;;10.34;80.64;98779.84;4469121;31;36117;-77
2022/01/04 11:00:15;;;;;;;9.68;5.18;;;;;;;10.48;80.07;98774.94;4471378;31;33782;-77
2022/01/04 11:03:02;;;;;;;9.35;5.07;;;;;;;10.22;81.91;98769.56;4474975;31;34620;-76
2022/01/04 11:05:54;;;;;;;8.95;5.15;;;;;;;10.03;82.80;98763.69;4482662;31;33767;-77
2022/01/04 11:08:42;;;;;;;8.07;4.82;;;;;;;10.95;79.04;98749.28;4464648;31;35503;-77
2022/01/04 11:11:28;;;;;;;8.40;5.40;;;;;;;10.68;80.49;98742.44;4482017;31;33617;-76
2022/01/04 11:14:14;;;;;;;11.25;5.12;;;;;;;10.22;82.65;98757.81;4480990;31;34493;-76
2022/01/04 11:17:01;;;;;;;9.98;5.53;;;;;;;10.22;82.62;98736.72;4471498;32;34998;-76
2022/01/04 11:19:47;;;;;;;10.27;5.40;;;;;;;10.72;79.78;98727.72;4472581;31;34520;-77
2022/01/04 11:22:35;;;;;;;8.80;4.35;;;;;;;10.43;82.08;98731.31;4481281;31;33819;-77
2022/01/04 11:25:21;;;;;;;11.25;4.80;;;;;;;10.13;82.17;98722.25;4480629;31;35308;-77
2022/01/04 11:28:09;;;;;;;8.80;4.28;;;;;;;10.77;79.91;98707.53;4471860;32;34100;-77
2022/01/04 11:31:18;;;;;;;7.55;4.45;;;;;;;10.50;80.49;98704.19;4473896;31;34556;-77
2022/01/04 11:34:17;;;;;;;10.02;4.75;;;;;;;9.56;85.12;98722.66;4456094;31;36041;-76
2022/01/04 11:37:03;;;;;;;8.77;4.32;;;;;;;10.04;83.97;98730.50;4481636;31;34603;-77
2022/01/04 11:39:52;;;;;;;8.32;4.60;;;;;;;10.27;82.92;98720.13;4480937;31;33969;-77
2022/01/04 11:42:38;;;;;;;8.52;4.60;;;;;;;10.32;82.05;98703.50;4473867;31;34182;-77
2022/01/04 11:45:44;;;;;;;9.48;4.90;;;;;;;10.47;81.24;98677.47;4472342;31;35039;-77
2022/01/04 11:48:42;;;;;;;9.23;4.93;;;;;;;10.51;81.12;98683.09;4480754;31;34061;-77
2022/01/04 11:51:28;;;;;;;10.40;4.57;;;;;;;10.57;81.05;98687.22;4480577;31;35763;-76
2022/01/04 11:54:23;;;;;;;9.27;4.97;;;;;;;10.39;81.00;98688.47;4481503;31;34668;-77
2022/01/04 11:57:16;;;;;;;9.15;4.57;;;;;;;10.45;81.69;98678.94;4470553;31;35027;-78
2022/01/04 12:00:05;;;;;;;8.82;4.85;;;;;;;10.01;84.35;98668.22;4472445;31;34688;-78
2022/01/04 12:03:19;;;;;;;7.72;4.30;;;;;;;10.38;82.78;98667.72;4483459;31;34888;-77
2022/01/04 12:06:07;;;;;;;7.70;4.55;;;;;;;9.68;85.76;98679.84;4462072;31;35434;-77
2022/01/04 12:08:54;;;;;;;8.50;4.68;;;;;;;10.37;83.36;98664.19;4479955;31;35085;-78
2022/01/04 12:11:41;;;;;;;7.07;4.30;;;;;;;10.23;83.98;98664.41;4472405;31;34546;-76
2022/01/04 12:14:28;;;;;;;8.20;4.62;;;;;;;9.72;86.45;98668.22;4481871;31;34914;-76
2022/01/04 12:17:32;;;;;;;9.30;4.93;;;;;;;9.77;86.00;98655.16;4481327;31;35510;-76
2022/01/04 12:20:41;;;;;;;8.90;4.25;;;;;;;9.88;85.87;98661.88;4474721;31;35113;-77
2022/01/04 12:23:35;;;;;;;8.73;5.05;;;;;;;9.80;85.55;98662.72;4481614;31;34607;-76
2022/01/04 12:26:22;;;;;;;7.87;4.72;;;;;;;10.55;82.86;98660.16;4482817;31;34643;-77
2022/01/04 12:29:09;;;;;;;8.70;4.12;;;;;;;9.93;84.55;98663.59;4474136;31;34294;-77
2022/01/04 12:31:56;;;;;;;12.23;5.20;;;;;;;10.17;83.42;98643.84;4472070;32;34458;-77
2022/01/04 12:34:57;;;;;;;9.35;4.80;;;;;;;10.22;84.46;98646.38;4482933;31;35445;-77
2022/01/04 12:37:43;;;;;;;7.72;4.47;;;;;;;9.86;86.61;98653.19;4474764;31;34156;-77
2022/01/04 12:40:30;;;;;;;10.07;4.60;;;;;;;10.35;84.56;98641.78;4483820;31;34571;-77
2022/01/04 12:43:16;;;;;;;8.18;4.32;;;;;;;10.01;84.04;98620.91;4471689;32;35029;-77
2022/01/04 12:46:03;;;;;;;10.10;4.22;;;;;;;10.25;84.08;98626.53;4485446;31;34164;-77
2022/01/04 12:48:52;;;;;;;8.48;4.07;;;;;;;10.34;83.22;98624.56;4469798;31;34169;-77
2022/01/04 12:51:44;;;;;;;7.78;4.35;;;;;;;10.21;84.07;98603.69;4471300;31;34533;-77
2022/01/04 12:54:33;;;;;;;10.95;4.45;;;;;;;10.13;83.76;98610.84;4481672;31;35051;-77
2022/01/04 12:57:26;;;;;;;9.20;4.85;;;;;;;9.81;85.40;98608.78;4473118;31;34517;-77
2022/01/04 13:00:15;;;;;;;8.23;4.82;;;;;;;10.03;84.45;98603.03;4481060;31;33973;-77
2022/01/04 13:03:01;;;;;;;15.80;5.07;;;;;;;9.94;84.28;98596.03;4471197;32;34902;-77
2022/01/04 13:06:14;;;;;;;8.80;4.32;;;;;;;10.47;81.94;98594.50;4461076;31;35019;-78
2022/01/04 13:09:00;;;;;;;9.25;4.60;;;;;;;10.43;81.17;98593.59;4482863;31;34516;-77
2022/01/04 13:11:52;;;;;;;8.20;4.43;;;;;;;10.62;81.25;98602.12;4481729;31;33752;-79
2022/01/04 13:14:38;;;;;;;7.30;4.18;;;;;;;10.16;82.39;98587.50;4478991;31;34558;-77
2022/01/04 13:17:26;;;;;;;8.02;4.47;;;;;;;10.35;81.74;98585.09;4464549;31;34971;-77
2022/01/04 13:20:14;;;;;;;8.18;4.40;;;;;;;11.02;78.41;98572.19;4472042;31;34517;-77
2022/01/04 13:23:08;;;;;;;9.70;4.75;;;;;;;10.71;80.15;98559.00;4481953;31;33812;-77
2022/01/04 13:25:58;;;;;;;14.40;4.55;;;;;;;10.63;80.96;98568.09;4461081;31;35496;-76
2022/01/04 13:28:56;;;;;;;8.95;4.70;;;;;;;10.96;78.96;98567.28;4481168;31;34968;-77
2022/01/04 13:31:42;;;;;;;8.68;4.60;;;;;;;11.31;77.73;98573.16;4470668;32;35343;-77
2022/01/04 13:34:29;;;;;;;11.85;4.68;;;;;;;11.30;78.01;98570.75;4459299;31;33843;-77
2022/01/04 13:37:17;;;;;;;14.80;4.50;;;;;;;10.75;79.84;98564.59;4470347;31;34843;-77
2022/01/04 13:40:10;;;;;;;9.40;4.62;;;;;;;11.24;78.18;98561.94;4472783;31;34527;-77
2022/01/04 13:43:17;;;;;;;12.57;4.80;;;;;;;10.77;80.69;98562.31;4482327;31;36126;-78
2022/01/04 13:46:13;;;;;;;9.10;5.00;;;;;;;10.90;79.91;98565.88;4482889;31;33971;-78
2022/01/04 13:49:01;;;;;;;12.40;4.97;;;;;;;11.30;77.77;98559.75;4481128;31;34679;-77
2022/01/04 13:51:49;;;;;;;7.85;4.30;;;;;;;11.57;76.11;98558.31;4483304;31;34516;-77
2022/01/04 13:54:36;;;;;;;8.43;4.70;;;;;;;11.40;77.04;98559.31;4482949;31;34679;-77
2022/01/04 13:57:30;;;;;;;9.63;4.93;;;;;;;10.92;78.53;98549.91;4473954;31;34975;-77
2022/01/04 14:00:29;;;;;;;14.75;5.12;;;;;;;10.90;78.85;98554.91;4483558;31;34182;-78
2022/01/04 14:03:27;;;;;;;10.35;4.93;;;;;;;11.61;75.71;98553.72;4485734;31;35570;-77
2022/01/04 14:06:33;;;;;;;7.75;4.43;;;;;;;10.52;79.44;98554.00;4473511;32;35325;-77
2022/01/04 14:09:24;;;;;;;10.68;5.53;;;;;;;10.69;79.80;98550.31;4471746;31;33686;-78
2022/01/04 14:12:16;;;;;;;9.07;4.05;;;;;;;11.01;78.17;98537.72;4470958;31;34633;-77
2022/01/04 14:15:07;;;;;;;8.38;3.90;;;;;;;10.93;78.88;98540.53;4482341;31;34885;-78
2022/01/04 14:18:10;;;;;;;6.47;3.75;;;;;;;11.06;77.94;98544.09;4473063;31;34463;-78
2022/01/04 14:20:56;;;;;;;7.78;4.30;;;;;;;10.74;79.44;98532.88;4470960;31;34721;-78
2022/01/04 14:23:43;;;;;;;10.43;4.30;;;;;;;10.81;79.37;98544.06;4483939;31;35598;-78
2022/01/04 14:26:30;;;;;;;7.20;4.03;;;;;;;10.52;80.52;98536.78;4482393;32;35073;-76
2022/01/04 14:29:29;;;;;;;8.90;4.40;;;;;;;11.13;77.42;98536.94;4476361;31;34623;-77
2022/01/04 14:32:24;;;;;;;8.27;4.30;;;;;;;11.22;76.79;98523.91;4477825;31;33752;-77
2022/01/04 14:35:18;;;;;;;7.05;3.92;;;;;;;11.10;78.22;98520.34;4470476;31;36204;-77
2022/01/04 14:38:08;;;;;;;8.13;4.20;;;;;;;10.69;80.13;98519.38;4483134;31;34984;-77
2022/01/04 14:40:54;;;;;;;10.63;4.37;;;;;;;10.99;78.61;98507.09;4476809;31;35441;-77
2022/01/04 14:43:41;;;;;;;8.10;4.10;;;;;;;10.95;79.00;98497.16;4482384;31;33741;-77
2022/01/04 14:46:27;;;;;;;7.75;4.28;;;;;;;10.83;79.41;98497.16;4474128;32;35170;-77
2022/01/04 14:49:13;;;;;;;7.95;4.30;;;;;;;10.99;78.52;98500.81;4480289;31;36056;-77
2022/01/04 14:52:04;;;;;;;12.80;4.65;;;;;;;11.42;76.83;98502.19;4482622;31;34605;-77
2022/01/04 14:54:54;;;;;;;7.83;4.30;;;;;;;11.14;77.58;98516.59;4482454;31;35153;-77
2022/01/04 14:57:41;;;;;;;10.90;4.70;;;;;;;10.49;80.80;98515.56;4481586;31;35570;-77
2022/01/04 15:00:30;;;;;;;8.40;4.03;;;;;;;11.18;78.07;98509.25;4480779;31;36750;-76
2022/01/04 15:03:16;;;;;;;6.93;3.42;;;;;;;10.62;80.18;98508.19;4476846;31;34485;-77
2022/01/04 15:06:04;;;;;;;8.93;4.07;;;;;;;10.56;80.70;98504.84;4472861;32;35062;-77
2022/01/04 15:08:51;;;;;;;8.25;3.72;;;;;;;10.52;81.11;98501.97;4480542;32;34690;-77
2022/01/04 15:11:37;;;;;;;10.63;4.12;;;;;;;10.35;82.07;98513.91;4480307;32;34657;-79
2022/01/04 15:14:24;;;;;;;10.13;4.35;;;;;;;10.46;80.71;98516.22;4481329;31;34819;-77
2022/01/04 15:17:12;;;;;;;12.27;4.30;;;;;;;10.76;79.78;98520.44;4480561;31;34960;-76
2022/01/04 15:19:58;;;;;;;7.93;3.22;;;;;;;10.46;81.94;98527.97;4472550;31;34494;-77
2022/01/04 15:22:45;;;;;;;9.43;4.22;;;;;;;10.66;80.68;98529.06;4483100;31;36031;-77
2022/01/04 15:25:31;;;;;;;7.60;3.50;;;;;;;10.70;80.30;98523.69;4480274;31;34079;-80
2022/01/04 15:28:18;;;;;;;9.75;4.10;;;;;;;10.96;79.00;98501.50;4483078;31;33935;-81
2022/01/04 15:31:05;;;;;;;9.00;4.45;;;;;;;10.59;80.50;98487.75;4473014;31;35510;-81
2022/01/04 15:33:51;;;;;;;9.00;4.65;;;;;;;10.86;78.87;98469.06;4469558;31;36646;-81
2022/01/04 15:36:38;;;;;;;8.52;4.55;;;;;;;10.64;79.50;98479.28;4479259;31;34786;-80
2022/01/04 15:39:24;;;;;;;11.35;3.87;;;;;;;10.67;80.02;98473.16;4476336;31;34076;-80
2022/01/04 15:42:11;;;;;;;8.63;3.83;;;;;;;10.58;79.93;98472.44;4467786;31;35698;-82
2022/01/04 15:44:57;;;;;;;7.97;3.60;;;;;;;10.81;79.11;98461.84;4478531;31;34691;-80
2022/01/04 15:47:44;;;;;;;8.23;3.75;;;;;;;10.73;79.27;98449.06;4465837;31;34264;-80
2022/01/04 15:50:30;;;;;;;15.90;4.53;;;;;;;10.85;78.96;98440.88;4476566;31;35482;-85
2022/01/04 15:53:17;;;;;;;7.40;4.20;;;;;;;10.84;79.00;98454.91;4477717;31;34301;-81
2022/01/04 15:56:04;;;;;;;11.95;5.57;;;;;;;10.47;80.40;98444.72;4466563;31;35739;-81
2022/01/04 15:58:50;;;;;;;9.15;4.90;;;;;;;10.49;81.16;98449.81;4467772;31;34404;-82
2022/01/04 16:01:37;;;;;;;9.00;4.30;;;;;;;10.52;81.06;98460.09;4471238;31;33868;-82
2022/01/04 16:04:26;;;;;;;8.68;3.80;;;;;;;10.64;80.27;98457.38;4469427;31;33655;-82
2022/01/04 16:07:12;;;;;;;9.30;4.45;;;;;;;10.90;79.24;98448.03;4469677;31;35021;-82
2022/01/04 16:09:58;;;;;;;14.07;7.10;;;;;;;10.92;78.99;98451.25;4481430;31;34238;-83
2022/01/04 16:12:46;;;;;;;14.57;5.68;;;;;;;11.14;78.05;98453.53;4464361;31;34123;-82
2022/01/04 16:15:55;;;;;;;8.75;4.55;;;;;;;10.88;79.12;98444.88;4481609;31;35537;-82
2022/01/04 16:21:48;;;;;;;8.82;4.60;;;;;;;10.59;80.70;98441.19;4470649;31;35421;-84
2022/01/04 16:24:34;;;;;;;7.32;3.97;;;;;;;10.56;80.67;98450.09;4470105;31;32955;-82
2022/01/04 16:27:20;;;;;;;10.82;5.07;;;;;;;10.87;79.58;98454.22;4468148;31;34554;-82
2022/01/04 16:30:07;;;;;;;90.07;53.10;;;;;;;10.93;79.59;98464.62;4481149;31;35017;-80
2022/01/04 16:32:54;;;;;;;9.02;5.50;;;;;;;10.84;78.93;98449.41;4480801;31;35453;-81
2022/01/04 16:35:40;;;;;;;26.17;17.73;;;;;;;11.15;78.56;98454.31;4458909;31;34651;-81
2022/01/04 16:38:26;;;;;;;16.73;8.88;;;;;;;11.47;77.07;98449.84;4483722;31;33413;-81
2022/01/04 16:41:12;;;;;;;12.73;8.13;;;;;;;11.24;77.50;98438.56;4470412;31;34979;-81
2022/01/04 16:44:04;;;;;;;10.48;5.45;;;;;;;11.52;77.17;98449.59;4482910;31;35019;-81
2022/01/04 16:46:51;;;;;;;;;;;;;;;11.36;77.21;98440.50;4471014;31;33846;-81
2022/01/04 16:49:38;;;;;;;8.95;4.35;;;;;;;11.55;76.62;98448.91;4470151;31;33661;-81
2022/01/04 16:52:24;;;;;;;10.35;5.62;;;;;;;10.48;81.36;98459.19;4470138;31;35048;-81
2022/01/04 16:55:14;;;;;;;9.63;4.93;;;;;;;10.91;79.99;98466.91;4481304;31;34650;-82
2022/01/04 16:58:20;;;;;;;10.52;5.40;;;;;;;10.86;80.40;98474.53;4480593;31;33861;-81
2022/01/04 17:01:06;;;;;;;13.98;6.43;;;;;;;10.66;81.07;98455.09;4468697;31;34111;-82
2022/01/04 17:03:52;;;;;;;18.02;7.45;;;;;;;10.75;79.81;98449.53;4470392;31;35527;-82
2022/01/04 17:06:39;;;;;;;15.23;6.95;;;;;;;10.93;79.19;98452.84;4481522;31;34524;-81
2022/01/04 17:09:33;;;;;;;14.63;7.18;;;;;;;10.31;81.81;98455.50;4460869;31;33013;-82
2022/01/04 17:15:33;;;;;;;9.52;4.53;;;;;;;10.62;79.41;98461.63;4480311;31;34689;-81
2022/01/04 17:18:22;;;;;;;10.45;6.72;;;;;;;10.65;81.41;98478.16;4471587;31;34607;-81
2022/01/04 17:21:08;;;;;;;10.40;5.68;;;;;;;10.38;81.55;98473.31;4482739;31;35055;-81
2022/01/04 17:23:56;;;;;;;13.20;8.05;;;;;;;10.08;83.28;98484.34;4470702;31;34643;-81
2022/01/04 17:26:42;;;;;;;13.32;5.90;;;;;;;9.53;86.16;98488.12;4474783;31;34890;-81
2022/01/04 17:29:29;;;;;;;10.40;5.57;;;;;;;9.87;85.24;98487.09;4477966;31;33261;-81
2022/01/04 17:32:16;;;;;;;12.30;5.75;;;;;;;9.98;84.88;98479.28;4483547;31;32824;-79
2022/01/04 17:35:05;;;;;;;11.55;5.87;;;;;;;10.06;84.06;98470.19;4472335;31;34406;-81
2022/01/04 17:37:50;;;;;;;13.32;6.07;;;;;;;9.53;86.93;98464.31;4482553;31;35351;-81
2022/01/04 17:40:46;;;;;;;9.35;5.03;;;;;;;10.24;83.18;98455.19;4485826;31;35348;-82
2022/01/04 17:43:32;;;;;;;11.48;5.25;;;;;;;10.65;81.34;98449.97;4470611;31;34513;-81
2022/01/04 17:46:20;;;;;;;7.95;4.07;;;;;;;10.62;81.00;98448.72;4479977;31;35238;-81
2022/01/04 17:49:07;;;;;;;8.10;3.67;;;;;;;10.24;82.52;98449.72;4468424;31;34478;-82
2022/01/04 17:51:53;;;;;;;7.40;3.87;;;;;;;10.13;83.86;98435.69;4482318;31;35120;-81
2022/01/04 17:54:39;;;;;;;7.78;3.78;;;;;;;10.26;83.20;98443.91;4483093;31;33154;-79
2022/01/04 17:57:26;;;;;;;9.02;3.75;;;;;;;10.24;82.43;98438.78;4474844;32;35613;-79
2022/01/04 18:00:13;;;;;;;8.75;3.50;;;;;;;10.20;83.43;98431.59;4482662;31;34947;-80
2022/01/04 18:02:59;;;;;;;10.70;6.15;;;;;;;10.46;82.02;98428.59;4478186;31;35367;-80
2022/01/04 18:05:46;;;;;;;8.43;4.28;;;;;;;10.64;81.03;98438.19;4485001;31;35120;-80
2022/01/04 18:08:33;;;;;;;9.18;4.78;;;;;;;10.69;80.86;98431.72;4479352;31;34653;-80
2022/01/04 18:11:19;;;;;;;7.72;4.50;;;;;;;9.96;84.76;98433.13;4474398;31;34565;-79
2022/01/04 18:14:05;;;;;;;8.63;5.12;;;;;;;10.00;83.73;98425.81;4481521;31;34673;-80
2022/01/04 18:16:53;;;;;;;9.80;4.47;;;;;;;9.76;85.64;98434.75;4480595;31;35092;-80
2022/01/04 18:19:40;;;;;;;7.50;4.15;;;;;;;9.68;86.60;98425.47;4481284;31;35583;-80
2022/01/04 18:22:27;;;;;;;8.57;4.80;;;;;;;9.55;87.17;98415.59;4481987;31;34649;-80
2022/01/04 18:25:14;;;;;;;9.35;5.00;;;;;;;9.99;84.28;98416.03;4482569;31;34801;-80
2022/01/04 18:28:02;;;;;;;8.73;4.90;;;;;;;9.91;84.13;98409.47;4481602;31;35493;-80
2022/01/04 18:30:49;;;;;;;10.90;4.18;;;;;;;10.41;81.57;98415.13;4471776;32;34216;-79
2022/01/04 18:33:35;;;;;;;8.65;3.97;;;;;;;9.69;85.44;98418.03;4471216;31;35942;-79
2022/01/04 18:36:24;;;;;;;12.82;5.47;;;;;;;9.95;84.35;98419.75;4469438;31;34126;-79
2022/01/04 18:39:10;;;;;;;15.88;7.50;;;;;;;9.01;89.54;98438.13;4480868;31;34251;-79
2022/01/04 18:41:59;;;;;;;10.57;5.50;;;;;;;9.65;85.89;98441.75;4481636;31;33455;-79
2022/01/04 18:44:50;;;;;;;18.15;6.95;;;;;;;9.29;87.79;98439.59;4472357;31;35161;-80
2022/01/04 18:47:38;;;;;;;20.85;10.25;;;;;;;9.97;85.02;98444.84;4479154;31;34228;-80
2022/01/04 18:50:27;;;;;;;19.83;9.07;;;;;;;9.33;87.70;98438.56;4472327;31;34992;-79